createdAt,value
2023-04-15T00:00:46.548Z,97545.02
2023-04-15T00:02:30.573Z,97540.79
2023-04-15T00:04:01.097Z,97541.85
2023-04-15T00:05:53.592Z,97539.79
2023-04-15T00:07:32.613Z,97543.31
2023-04-15T00:08:53.636Z,97543.29
2023-04-15T00:10:23.480Z,97541.57
2023-04-15T00:12:06.798Z,97539.92
2023-04-15T00:13:38.890Z,97544.30
2023-04-15T00:15:22.521Z,97541.00
2023-04-15T00:16:45.044Z,97545.17
2023-04-15T00:18:36.725Z,97543.61
2023-04-15T00:20:08.771Z,97542.61
2023-04-15T00:21:42.534Z,97544.98
2023-04-15T00:23:04.862Z,97547.05
2023-04-15T00:24:44.186Z,97551.30
2023-04-15T00:26:24.597Z,97545.72
2023-04-15T00:28:08.500Z,97550.91
2023-04-15T00:29:40.547Z,97552.25
2023-04-15T00:31:27.757Z,97555.46
2023-04-15T00:33:15.215Z,97554.43
2023-04-15T00:34:59.049Z,97546.66
2023-04-15T00:36:33.346Z,97553.04
2023-04-15T00:37:55.261Z,97545.23
2023-04-15T00:39:29.760Z,97542.70
2023-04-15T00:41:03.527Z,97549.56
2023-04-15T00:42:35.848Z,97540.82
2023-04-15T00:44:19.392Z,97541.98
2023-04-15T00:45:58.688Z,97538.06
2023-04-15T00:47:18.761Z,97535.54
2023-04-15T00:48:57.987Z,97540.70
2023-04-15T00:50:50.554Z,97543.20
2023-04-15T00:52:34.074Z,97546.18
2023-04-15T00:54:18.736Z,97539.10
2023-04-15T00:56:02.308Z,97543.20
2023-04-15T00:57:32.439Z,97542.88
2023-04-15T00:59:17.317Z,97545.59
2023-04-15T01:01:00.808Z,97545.96
2023-04-15T01:02:35.571Z,97543.86
2023-04-15T01:04:15.065Z,97549.60
2023-04-15T01:05:58.881Z,97543.70
2023-04-15T01:07:33.507Z,97539.41
2023-04-15T01:08:53.519Z,97546.79
2023-04-15T01:10:25.706Z,97546.38
2023-04-15T01:12:00.166Z,97542.90
2023-04-15T01:13:32.146Z,97532.48
2023-04-15T01:15:03.879Z,97545.56
2023-04-15T01:16:38.484Z,97542.90
2023-04-15T01:18:17.521Z,97542.27
2023-04-15T01:20:01.098Z,97539.94
2023-04-15T01:21:44.697Z,97537.55
2023-04-15T01:23:18.716Z,97537.69
2023-04-15T01:24:48.809Z,97540.68
2023-04-15T01:26:42.351Z,97539.69
2023-04-15T01:28:15.452Z,97538.50
2023-04-15T01:29:48.387Z,97540.33
2023-04-15T01:31:31.861Z,97539.61
2023-04-15T01:33:01.947Z,97524.85
2023-04-15T01:34:29.879Z,97537.92
2023-04-15T01:36:03.893Z,97542.02
2023-04-15T01:37:43.284Z,97540.00
2023-04-15T01:39:26.776Z,97540.52
2023-04-15T01:41:11.048Z,97536.81
2023-04-15T01:42:36.204Z,97539.34
2023-04-15T01:44:10.254Z,97541.44
2023-04-15T01:45:37.913Z,97542.80
2023-04-15T01:47:10.019Z,97541.52
2023-04-15T01:48:42.341Z,97545.61
2023-04-15T01:50:04.537Z,97545.41
2023-04-15T01:51:48.053Z,97543.80
2023-04-15T01:53:22.959Z,97543.05
2023-04-15T01:54:55.694Z,97542.55
2023-04-15T01:56:29.779Z,97545.36
2023-04-15T01:58:05.343Z,97545.86
2023-04-15T01:59:37.596Z,97549.45
2023-04-15T02:01:21.438Z,97549.79
2023-04-15T02:03:04.161Z,97552.25
2023-04-15T02:04:43.653Z,97550.70
2023-04-15T02:06:16.001Z,97550.23
2023-04-15T02:07:38.777Z,97553.23
2023-04-15T02:09:22.468Z,97550.38
2023-04-15T02:10:57.573Z,97557.86
2023-04-15T02:12:38.894Z,97553.09
2023-04-15T02:14:22.585Z,97551.88
2023-04-15T02:15:54.296Z,97550.70
2023-04-15T02:17:40.632Z,97550.98
2023-04-15T02:19:13.061Z,97549.54
2023-04-15T02:21:05.552Z,97553.04
2023-04-15T02:22:37.515Z,97550.94
2023-04-15T02:24:16.713Z,97552.27
2023-04-15T02:25:53.831Z,97552.23
2023-04-15T02:27:47.567Z,97549.67
2023-04-15T02:29:31.162Z,97556.16
2023-04-15T02:31:05.686Z,97560.05
2023-04-15T02:32:46.570Z,97547.51
2023-04-15T02:34:14.331Z,97557.33
2023-04-15T02:35:58.523Z,97557.23
2023-04-15T02:37:51.536Z,97558.41
2023-04-15T02:39:14.101Z,97559.88
2023-04-15T02:40:57.906Z,97560.45
2023-04-15T02:42:33.248Z,97553.67
2023-04-15T02:44:13.081Z,97562.37
2023-04-15T02:45:48.473Z,97558.11
2023-04-15T02:47:23.104Z,97553.43
2023-04-15T02:49:02.391Z,97555.17
2023-04-15T02:50:35.005Z,97550.70
2023-04-15T02:52:18.745Z,97557.17
2023-04-15T02:53:41.901Z,97555.70
2023-04-15T02:55:13.603Z,97551.48
2023-04-15T02:57:06.569Z,97553.30
2023-04-15T02:58:38.742Z,97555.97
2023-04-15T03:00:08.786Z,97556.17
2023-04-15T03:01:52.942Z,97543.68
2023-04-15T03:03:27.544Z,97547.93
2023-04-15T03:05:10.944Z,97557.88
2023-04-15T03:06:43.677Z,97560.31
2023-04-15T03:08:16.525Z,97559.02
2023-04-15T03:10:00.685Z,97559.83
2023-04-15T03:11:39.951Z,97561.60
2023-04-15T03:13:20.978Z,97558.55
2023-04-15T03:15:05.076Z,97560.11
2023-04-15T03:16:52.955Z,97562.84
2023-04-15T03:18:13.264Z,97559.95
2023-04-15T03:19:53.684Z,97565.41
2023-04-15T03:21:25.677Z,97561.98
2023-04-15T03:23:04.510Z,97563.71
2023-04-15T03:24:25.411Z,97565.56
2023-04-15T03:25:57.264Z,97568.17
2023-04-15T03:27:45.381Z,97565.95
2023-04-15T03:29:29.101Z,97569.75
2023-04-15T03:31:12.916Z,97566.73
2023-04-15T03:32:56.615Z,97569.20
2023-04-15T03:34:28.758Z,97566.72
2023-04-15T03:35:51.794Z,97567.38
2023-04-15T03:37:14.630Z,97565.59
2023-04-15T03:39:04.536Z,97569.72
2023-04-15T03:40:36.867Z,97568.59
2023-04-15T03:42:08.985Z,97566.88
2023-04-15T03:43:28.964Z,97565.55
2023-04-15T03:45:00.887Z,97567.00
2023-04-15T03:46:32.938Z,97566.53
2023-04-15T03:47:55.433Z,97570.47
2023-04-15T03:49:39.030Z,97569.41
2023-04-15T03:51:01.834Z,97573.22
2023-04-15T03:52:36.124Z,97568.52
2023-04-15T03:54:15.428Z,97572.80
2023-04-15T03:55:56.669Z,97577.94
2023-04-15T03:57:40.161Z,97574.91
2023-04-15T03:59:14.764Z,97575.54
2023-04-15T04:00:50.668Z,97578.98
2023-04-15T04:02:23.254Z,97577.42
2023-04-15T04:03:58.164Z,97578.55
2023-04-15T04:05:50.081Z,97581.11
2023-04-15T04:07:33.545Z,97580.57
2023-04-15T04:09:17.358Z,97580.81
2023-04-15T04:11:01.146Z,97579.98
2023-04-15T04:12:45.091Z,97581.93
2023-04-15T04:14:37.541Z,97584.58
2023-04-15T04:16:27.852Z,97586.52
2023-04-15T04:18:12.039Z,97584.46
2023-04-15T04:19:55.611Z,97584.96
2023-04-15T04:21:39.367Z,97587.56
2023-04-15T04:23:32.527Z,97587.77
2023-04-15T04:25:15.965Z,97583.55
2023-04-15T04:26:46.476Z,97583.98
2023-04-15T04:28:18.340Z,97588.52
2023-04-15T04:29:50.305Z,97585.27
2023-04-15T04:31:24.412Z,97586.73
2023-04-15T04:32:56.052Z,97587.55
2023-04-15T04:34:39.551Z,97587.59
2023-04-15T04:36:23.263Z,97591.36
2023-04-15T04:38:04.761Z,97591.91
2023-04-15T04:39:48.215Z,97594.12
2023-04-15T04:41:40.210Z,97590.40
2023-04-15T04:43:11.980Z,97591.67
2023-04-15T04:44:46.970Z,97591.88
2023-04-15T04:46:30.373Z,97594.15
2023-04-15T04:48:09.399Z,97595.29
2023-04-15T04:49:54.366Z,97594.17
2023-04-15T04:51:33.728Z,97595.37
2023-04-15T04:53:05.406Z,97592.77
2023-04-15T04:54:37.345Z,97594.88
2023-04-15T04:56:21.042Z,97595.16
2023-04-15T04:58:02.650Z,97595.20
2023-04-15T04:59:42.036Z,97595.70
2023-04-15T05:01:14.014Z,97595.73
2023-04-15T05:05:01.336Z,97596.80
2023-04-15T05:08:55.537Z,97598.46
2023-04-15T05:10:39.497Z,97598.27
2023-04-15T05:12:20.198Z,97601.77
2023-04-15T05:14:03.765Z,97602.84
2023-04-15T05:15:56.335Z,97606.83
2023-04-15T05:17:48.019Z,97611.28
2023-04-15T05:19:22.280Z,97615.59
2023-04-15T05:20:59.971Z,97611.41
2023-04-15T05:22:40.873Z,97608.48
2023-04-15T05:24:03.108Z,97610.95
2023-04-15T05:25:47.364Z,97604.50
2023-04-15T05:27:27.513Z,97611.29
2023-04-15T05:29:11.201Z,97608.82
2023-04-15T05:30:43.388Z,97605.92
2023-04-15T05:32:35.327Z,97609.98
2023-04-15T05:34:18.431Z,97604.23
2023-04-15T05:35:53.064Z,97606.06
2023-04-15T05:37:22.822Z,97611.29
2023-04-15T05:38:46.062Z,97612.16
2023-04-15T05:40:26.736Z,97609.80
2023-04-15T05:42:10.853Z,97599.99
2023-04-15T05:43:54.556Z,97612.91
2023-04-15T05:45:28.990Z,97618.02
2023-04-15T05:47:08.039Z,97623.29
2023-04-15T05:48:28.329Z,97625.23
2023-04-15T05:50:02.537Z,97630.40
2023-04-15T05:51:49.139Z,97628.55
2023-04-15T05:53:32.829Z,97632.84
2023-04-15T05:55:16.697Z,97629.92
2023-04-15T05:56:46.466Z,97633.26
2023-04-15T05:58:25.917Z,97635.50
2023-04-15T06:01:56.886Z,97634.35
2023-04-15T06:03:36.477Z,97632.93
2023-04-15T06:05:20.667Z,97631.05
2023-04-15T06:06:56.284Z,97633.05
2023-04-15T06:08:46.273Z,97637.16
2023-04-15T06:10:06.564Z,97637.45
2023-04-15T06:11:53.447Z,97639.98
2023-04-15T06:13:25.444Z,97635.44
2023-04-15T06:15:09.287Z,97636.83
2023-04-15T06:16:30.502Z,97632.69
2023-04-15T06:17:57.983Z,97633.84
2023-04-15T06:19:32.184Z,97639.58
2023-04-15T06:21:04.262Z,97640.06
2023-04-15T06:22:35.440Z,97643.59
2023-04-15T06:24:09.255Z,97629.77
2023-04-15T06:25:57.229Z,97646.39
2023-04-15T06:27:29.379Z,97653.19
2023-04-15T06:29:03.558Z,97656.13
2023-04-15T06:30:47.441Z,97651.14
2023-04-15T06:32:19.353Z,97658.78
2023-04-15T06:34:02.906Z,97647.91
2023-04-15T06:35:46.680Z,97659.45
2023-04-15T06:37:21.023Z,97646.03
2023-04-15T06:39:04.618Z,97657.61
2023-04-15T06:40:56.920Z,97657.59
2023-04-15T06:42:48.876Z,97656.42
2023-04-15T06:44:23.556Z,97657.66
2023-04-15T06:45:57.762Z,97655.91
2023-04-15T06:47:29.667Z,97657.20
2023-04-15T06:49:04.092Z,97659.17
2023-04-15T06:50:27.347Z,97655.91
2023-04-15T06:51:59.958Z,97659.76
2023-04-15T06:53:22.625Z,97659.39
2023-04-15T06:55:06.077Z,97659.95
2023-04-15T06:56:38.316Z,97662.42
2023-04-15T06:58:21.951Z,97662.80
2023-04-15T06:59:53.887Z,97667.10
2023-04-15T07:01:19.012Z,97670.70
2023-04-15T07:03:02.894Z,97672.27
2023-04-15T07:04:45.298Z,97671.93
2023-04-15T07:06:29.022Z,97673.39
2023-04-15T07:07:58.508Z,97679.23
2023-04-15T07:09:33.462Z,97681.55
2023-04-15T07:10:58.680Z,97680.33
2023-04-15T07:12:42.499Z,97682.54
2023-04-15T07:14:16.667Z,97684.52
2023-04-15T07:15:48.600Z,97683.60
2023-04-15T07:17:18.471Z,97685.14
2023-04-15T07:18:46.339Z,97685.52
2023-04-15T07:20:09.626Z,97687.31
2023-04-15T07:21:54.503Z,97686.45
2023-04-15T07:23:24.563Z,97688.64
2023-04-15T07:24:59.252Z,97686.36
2023-04-15T07:26:27.007Z,97688.30
2023-04-15T07:28:10.758Z,97690.35
2023-04-15T07:30:03.565Z,97690.20
2023-04-15T07:31:38.240Z,97688.11
2023-04-15T07:33:04.110Z,97687.04
2023-04-15T07:34:44.312Z,97690.65
2023-04-15T07:36:12.533Z,97689.73
2023-04-15T07:37:47.024Z,97688.64
2023-04-15T07:39:30.427Z,97693.48
2023-04-15T07:41:14.812Z,97694.02
2023-04-15T07:42:50.552Z,97687.27
2023-04-15T07:44:43.556Z,97693.77
2023-04-15T07:46:27.148Z,97694.67
2023-04-15T07:48:11.528Z,97692.58
2023-04-15T07:49:55.392Z,97692.27
2023-04-15T07:51:48.559Z,97693.67
2023-04-15T07:53:40.514Z,97692.30
2023-04-15T07:55:23.896Z,97693.23
2023-04-15T07:56:58.073Z,97693.42
2023-04-15T07:58:32.327Z,97694.88
2023-04-15T08:00:17.737Z,97696.41
2023-04-15T08:02:01.711Z,97697.80
2023-04-15T08:03:45.419Z,97697.77
2023-04-15T08:05:28.904Z,97704.10
2023-04-15T08:07:03.320Z,97705.13
2023-04-15T08:08:37.874Z,97705.05
2023-04-15T08:10:00.465Z,97704.31
2023-04-15T08:11:28.244Z,97702.36
2023-04-15T08:13:00.725Z,97699.34
2023-04-15T08:14:33.401Z,97702.36
2023-04-15T08:16:17.195Z,97700.66
2023-04-15T08:17:49.743Z,97699.86
2023-04-15T08:19:28.848Z,97699.52
2023-04-15T08:21:07.881Z,97702.96
2023-04-15T08:23:00.043Z,97699.73
2023-04-15T08:24:39.526Z,97706.92
2023-04-15T08:26:07.605Z,97703.08
2023-04-15T08:27:37.138Z,97704.81
2023-04-15T08:29:00.194Z,97705.44
2023-04-15T08:30:32.591Z,97707.84
2023-04-15T08:32:07.448Z,97707.15
2023-04-15T08:33:51.324Z,97714.46
2023-04-15T08:35:23.282Z,97711.08
2023-04-15T08:36:46.924Z,97710.63
2023-04-15T08:38:26.204Z,97710.16
2023-04-15T08:39:58.209Z,97710.80
2023-04-15T08:41:49.845Z,97710.02
2023-04-15T08:43:35.129Z,97710.52
2023-04-15T08:45:04.997Z,97714.42
2023-04-15T08:46:49.189Z,97708.59
2023-04-15T08:48:23.751Z,97706.38
2023-04-15T08:49:55.890Z,97710.89
2023-04-15T08:51:25.830Z,97708.66
2023-04-15T08:52:57.753Z,97708.48
2023-04-15T08:54:33.021Z,97712.51
2023-04-15T08:56:03.018Z,97716.30
2023-04-15T08:57:43.684Z,97717.08
2023-04-15T08:59:06.341Z,97715.31
2023-04-15T09:00:46.814Z,97711.44
2023-04-15T09:02:30.504Z,97714.11
2023-04-15T09:04:02.417Z,97715.27
2023-04-15T09:05:36.438Z,97718.17
2023-04-15T09:07:08.116Z,97718.03
2023-04-15T09:08:35.953Z,97712.48
2023-04-15T09:10:15.556Z,97719.35
2023-04-15T09:11:59.016Z,97718.05
2023-04-15T09:13:47.641Z,97717.65
2023-04-15T09:15:21.660Z,97717.76
2023-04-15T09:16:53.791Z,97708.28
2023-04-15T09:18:37.503Z,97714.33
2023-04-15T09:20:12.399Z,97710.31
2023-04-15T09:21:34.150Z,97709.33
2023-04-15T09:23:07.621Z,97708.77
2023-04-15T09:24:53.122Z,97707.70
2023-04-15T09:26:15.992Z,97708.81
2023-04-15T09:27:48.506Z,97709.70
2023-04-15T09:29:08.576Z,97709.92
2023-04-15T09:30:52.072Z,97703.71
2023-04-15T09:32:43.990Z,97694.52
2023-04-15T09:34:18.089Z,97708.41
2023-04-15T09:35:40.666Z,97710.34
2023-04-15T09:37:31.743Z,97704.30
2023-04-15T09:39:16.074Z,97704.56
2023-04-15T09:40:48.280Z,97709.99
2023-04-15T09:42:10.788Z,97710.59
2023-04-15T09:43:42.971Z,97712.92
2023-04-15T09:45:29.363Z,97717.68
2023-04-15T09:47:02.460Z,97713.50
2023-04-15T09:48:34.606Z,97711.97
2023-04-15T09:50:06.281Z,97714.05
2023-04-15T09:52:05.056Z,97713.52
2023-04-15T09:53:48.584Z,97719.89
2023-04-15T09:55:32.154Z,97718.44
2023-04-15T09:57:11.692Z,97719.66
2023-04-15T09:58:51.171Z,97723.67
2023-04-15T10:00:26.261Z,97726.20
2023-04-15T10:02:01.021Z,97732.54
2023-04-15T10:03:45.223Z,97732.52
2023-04-15T10:05:13.286Z,97736.86
2023-04-15T10:06:45.806Z,97736.52
2023-04-15T10:08:18.293Z,97736.31
2023-04-15T10:09:46.348Z,97739.59
2023-04-15T10:11:30.428Z,97740.81
2023-04-15T10:13:05.754Z,97740.89
2023-04-15T10:14:27.646Z,97738.40
2023-04-15T10:15:58.832Z,97743.66
2023-04-15T10:17:33.060Z,97741.33
2023-04-15T10:19:01.242Z,97739.64
2023-04-15T10:20:31.352Z,97737.56
2023-04-15T10:22:01.507Z,97734.42
2023-04-15T10:23:41.204Z,97735.04
2023-04-15T10:25:15.919Z,97738.48
2023-04-15T10:26:47.869Z,97737.26
2023-04-15T10:28:40.065Z,97736.77
2023-04-15T10:30:23.889Z,97737.79
2023-04-15T10:32:00.420Z,97741.48
2023-04-15T10:33:44.632Z,97742.91
2023-04-15T10:35:27.931Z,97748.09
2023-04-15T10:37:12.507Z,97745.47
2023-04-15T10:38:47.746Z,97749.64
2023-04-15T10:40:33.594Z,97748.80
2023-04-15T10:41:54.084Z,97751.77
2023-04-15T10:43:16.545Z,97749.26
2023-04-15T10:44:52.164Z,97752.23
2023-04-15T10:46:26.128Z,97749.88
2023-04-15T10:48:09.685Z,97751.78
2023-04-15T10:49:52.089Z,97753.57
2023-04-15T10:51:44.580Z,97748.58
2023-04-15T10:53:16.417Z,97750.52
2023-04-15T10:54:48.209Z,97752.04
2023-04-15T10:56:38.238Z,97750.30
2023-04-15T10:58:17.569Z,97752.20
2023-04-15T11:00:01.183Z,97749.39
2023-04-15T11:01:46.098Z,97754.17
2023-04-15T11:03:14.103Z,97751.56
2023-04-15T11:04:53.780Z,97754.71
2023-04-15T11:06:37.728Z,97758.11
2023-04-15T11:07:58.005Z,97755.42
2023-04-15T11:09:41.237Z,97759.24
2023-04-15T11:11:24.668Z,97755.91
2023-04-15T11:12:58.816Z,97762.20
2023-04-15T11:14:30.458Z,97757.80
2023-04-15T11:16:13.949Z,97756.52
2023-04-15T11:17:36.840Z,97759.73
2023-04-15T11:19:08.426Z,97758.78
2023-04-15T11:21:02.622Z,97756.48
2023-04-15T11:22:51.235Z,97760.65
2023-04-15T11:24:34.554Z,97761.17
2023-04-15T11:26:09.514Z,97760.38
2023-04-15T11:27:49.344Z,97760.20
2023-04-15T11:29:21.384Z,97752.94
2023-04-15T11:30:55.622Z,97758.73
2023-04-15T11:32:27.581Z,97762.51
2023-04-15T11:34:01.860Z,97763.48
2023-04-15T11:35:45.646Z,97765.51
2023-04-15T11:37:17.354Z,97764.49
2023-04-15T11:38:49.664Z,97765.30
2023-04-15T11:40:23.787Z,97767.07
2023-04-15T11:42:07.093Z,97766.44
2023-04-15T11:43:41.846Z,97767.08
2023-04-15T11:45:18.171Z,97772.21
2023-04-15T11:47:01.825Z,97767.64
2023-04-15T11:48:33.738Z,97770.16
2023-04-15T11:50:17.190Z,97770.23
2023-04-15T11:51:56.724Z,97775.16
2023-04-15T11:53:40.450Z,97776.23
2023-04-15T11:55:23.795Z,97779.08
2023-04-15T11:57:07.586Z,97780.02
2023-04-15T11:58:51.576Z,97777.23
2023-04-15T12:00:35.332Z,97782.36
2023-04-15T12:02:14.883Z,97771.02
2023-04-15T12:03:59.037Z,97782.12
2023-04-15T12:05:42.873Z,97784.98
2023-04-15T12:07:12.324Z,97785.20
2023-04-15T12:08:48.044Z,97783.52
2023-04-15T12:10:31.448Z,97790.38
2023-04-15T12:12:13.142Z,97795.45
2023-04-15T12:13:45.512Z,97794.88
2023-04-15T12:15:38.654Z,97802.65
2023-04-15T12:17:22.497Z,97805.63
2023-04-15T12:19:09.957Z,97806.38
2023-04-15T12:20:53.911Z,97808.41
2023-04-15T12:22:26.339Z,97815.60
2023-04-15T12:23:58.664Z,97809.84
2023-04-15T12:25:32.400Z,97814.00
2023-04-15T12:26:55.260Z,97810.11
2023-04-15T12:28:26.981Z,97813.36
2023-04-15T12:30:10.022Z,97816.17
2023-04-15T12:31:49.473Z,97820.41
2023-04-15T12:33:16.974Z,97823.73
2023-04-15T12:34:37.333Z,97821.94
2023-04-15T12:36:05.049Z,97824.14
2023-04-15T12:37:48.992Z,97822.65
2023-04-15T12:39:11.335Z,97821.60
2023-04-15T12:40:48.710Z,97819.73
2023-04-15T12:42:21.803Z,97821.77
2023-04-15T12:44:00.924Z,97824.53
2023-04-15T12:45:33.045Z,97827.06
2023-04-15T12:47:07.359Z,97827.77
2023-04-15T12:48:47.776Z,97829.23
2023-04-15T12:50:21.626Z,97828.64
2023-04-15T12:51:55.660Z,97831.46
2023-04-15T12:53:25.895Z,97831.66
2023-04-15T12:54:46.232Z,97831.17
2023-04-15T12:56:29.740Z,97835.59
2023-04-15T12:58:13.141Z,97837.43
2023-04-15T12:59:35.750Z,97837.88
2023-04-15T13:01:10.143Z,97835.44
2023-04-15T13:02:50.122Z,97840.96
2023-04-15T13:04:32.122Z,97839.58
2023-04-15T13:05:52.921Z,97843.52
2023-04-15T13:07:22.895Z,97847.41
2023-04-15T13:09:03.975Z,97847.23
2023-04-15T13:10:38.758Z,97848.77
2023-04-15T13:12:22.362Z,97850.17
2023-04-15T13:14:13.663Z,97856.75
2023-04-15T13:15:44.958Z,97861.85
2023-04-15T13:17:28.963Z,97861.61
2023-04-15T13:19:08.036Z,97857.64
2023-04-15T13:20:45.552Z,97855.73
2023-04-15T13:22:17.440Z,97856.86
2023-04-15T13:24:02.229Z,97857.05
2023-04-15T13:25:54.306Z,97857.27
2023-04-15T13:27:25.881Z,97856.16
2023-04-15T13:29:08.907Z,97854.80
2023-04-15T13:30:52.913Z,97857.44
2023-04-15T13:32:38.826Z,97859.27
2023-04-15T13:34:10.244Z,97861.70
2023-04-15T13:35:51.604Z,97862.53
2023-04-15T13:37:26.037Z,97861.13
2023-04-15T13:39:09.347Z,97863.48
2023-04-15T13:40:41.552Z,97855.02
2023-04-15T13:42:21.152Z,97849.41
2023-04-15T13:44:05.221Z,97839.96
2023-04-15T13:45:49.440Z,97834.95
2023-04-15T13:47:21.479Z,97844.65
2023-04-15T13:48:55.877Z,97844.44
2023-04-15T13:50:28.806Z,97842.58
2023-04-15T13:52:00.608Z,97838.26
2023-04-15T13:53:40.777Z,97843.36
2023-04-15T13:55:08.270Z,97841.29
2023-04-15T13:57:03.777Z,97848.90
2023-04-15T13:58:47.770Z,97849.44
2023-04-15T14:00:31.120Z,97851.23
2023-04-15T14:02:14.800Z,97848.64
2023-04-15T14:03:35.878Z,97857.09
2023-04-15T14:05:19.690Z,97860.77
2023-04-15T14:07:05.071Z,97860.31
2023-04-15T14:08:25.636Z,97865.58
2023-04-15T14:09:59.996Z,97867.84
2023-04-15T14:11:44.852Z,97869.23
2023-04-15T14:13:18.712Z,97873.83
2023-04-15T14:14:52.958Z,97874.80
2023-04-15T14:16:22.423Z,97876.36
2023-04-15T14:17:43.319Z,97879.59
2023-04-15T14:19:17.245Z,97883.29
2023-04-15T14:20:49.440Z,97882.27
2023-04-15T14:22:11.812Z,97878.02
2023-04-15T14:23:43.963Z,97874.24
2023-04-15T14:25:30.513Z,97881.83
2023-04-15T14:26:57.098Z,97877.92
2023-04-15T14:28:31.359Z,97880.08
2023-04-15T14:30:05.306Z,97883.09
2023-04-15T14:32:11.552Z,97879.21
2023-04-15T14:33:43.336Z,97882.02
2023-04-15T14:35:26.859Z,97885.30
2023-04-15T14:37:13.270Z,97883.87
2023-04-15T14:38:56.848Z,97891.40
2023-04-15T14:40:42.563Z,97889.13
2023-04-15T14:42:14.528Z,97887.60
2023-04-15T14:45:51.996Z,97885.23
2023-04-15T14:47:27.281Z,97888.23
2023-04-15T14:49:00.770Z,97890.27
2023-04-15T14:50:54.777Z,97891.55
2023-04-15T14:52:28.282Z,97888.98
2023-04-15T14:54:04.854Z,97889.94
2023-04-15T14:55:52.020Z,97888.86
2023-04-15T14:57:25.493Z,97889.49
2023-04-15T14:59:01.744Z,97890.30
2023-04-15T15:00:55.090Z,97891.97
2023-04-15T15:02:40.613Z,97889.86
2023-04-15T15:04:16.271Z,97892.33
2023-04-15T15:06:01.754Z,97893.56
2023-04-15T15:07:43.530Z,97894.67
2023-04-15T15:09:37.746Z,97896.18
2023-04-15T15:11:01.941Z,97898.86
2023-04-15T15:12:56.756Z,97905.14
2023-04-15T15:14:41.714Z,97907.88
2023-04-15T15:16:28.927Z,97911.91
2023-04-15T15:18:04.843Z,97916.96
2023-04-15T15:19:59.759Z,97917.20
2023-04-15T15:21:44.672Z,97921.48
2023-04-15T15:23:18.238Z,97918.52
2023-04-15T15:24:59.144Z,97923.05
2023-04-15T15:26:43.898Z,97927.02
2023-04-15T15:28:31.608Z,97931.16
2023-04-15T15:30:16.483Z,97930.29
2023-04-15T15:31:57.554Z,97933.11
2023-04-15T15:33:33.254Z,97938.39
2023-04-15T15:35:08.950Z,97937.41
2023-04-15T15:36:44.828Z,97946.98
2023-04-15T15:38:30.150Z,97941.86
2023-04-15T15:39:55.010Z,97946.06
2023-04-15T15:41:28.222Z,97945.67
2023-04-15T15:43:09.152Z,97951.39
2023-04-15T15:44:45.405Z,97951.50
2023-04-15T15:46:25.792Z,97953.59
2023-04-15T15:48:19.106Z,97949.57
2023-04-15T15:49:54.812Z,97949.66
2023-04-15T15:51:48.528Z,97952.11
2023-04-15T15:53:24.240Z,97953.84
2023-04-15T15:55:09.078Z,97953.64
2023-04-15T15:56:53.047Z,97952.46
2023-04-15T15:58:46.495Z,97955.23
2023-04-15T16:00:15.833Z,97959.42
2023-04-15T16:01:57.526Z,97958.63
2023-04-15T16:03:26.947Z,97961.61
2023-04-15T16:05:01.807Z,97961.23
2023-04-15T16:06:55.683Z,97956.66
2023-04-15T16:08:24.836Z,97953.48
2023-04-15T16:09:54.848Z,97958.45
2023-04-15T16:11:31.000Z,97961.21
2023-04-15T16:13:07.248Z,97960.02
2023-04-15T16:14:52.682Z,97947.79
2023-04-15T16:16:38.097Z,97961.20
2023-04-15T16:18:13.383Z,97957.36
2023-04-15T16:19:57.932Z,97954.21
2023-04-15T16:21:36.097Z,97957.24
2023-04-15T16:23:09.186Z,97958.04
2023-04-15T16:24:45.114Z,97943.70
2023-04-15T16:26:18.823Z,97961.80
2023-04-15T16:28:08.324Z,97962.20
2023-04-15T16:29:57.026Z,97969.48
2023-04-15T16:31:32.250Z,97969.72
2023-04-15T16:33:05.421Z,97971.50
2023-04-15T16:34:42.410Z,97977.91
2023-04-15T16:36:08.765Z,97976.58
2023-04-15T16:37:44.923Z,97978.71
2023-04-15T16:39:16.170Z,97978.98
2023-04-15T16:41:01.563Z,97977.49
2023-04-15T16:42:47.040Z,97982.83
2023-04-15T16:44:36.921Z,97983.09
2023-04-15T16:46:30.854Z,97987.14
2023-04-15T16:48:11.484Z,97987.42
2023-04-15T16:49:45.977Z,97991.94
2023-04-15T16:51:31.890Z,97989.88
2023-04-15T16:53:22.044Z,97984.39
2023-04-15T16:54:53.924Z,97995.82
2023-04-15T16:56:29.475Z,97992.58
2023-04-15T16:58:22.731Z,97994.89
2023-04-15T17:00:07.710Z,97996.45
2023-04-15T17:01:53.479Z,97993.70
2023-04-15T17:03:39.531Z,97997.29
2023-04-15T17:05:13.207Z,97998.64
2023-04-15T17:06:58.598Z,97999.41
2023-04-15T17:08:27.804Z,97998.16
2023-04-15T17:09:56.870Z,98009.81
2023-04-15T17:11:50.448Z,98011.55
2023-04-15T17:13:26.738Z,98016.21
2023-04-15T17:15:02.313Z,98022.09
2023-04-15T17:16:48.014Z,98019.64
2023-04-15T17:18:28.265Z,98017.33
2023-04-15T17:19:50.603Z,98018.81
2023-04-15T17:21:14.289Z,98015.09
2023-04-15T17:22:50.188Z,98018.35
2023-04-15T17:24:36.961Z,98020.25
2023-04-15T17:26:22.535Z,98025.09
2023-04-15T17:28:08.021Z,98025.41
2023-04-15T17:29:53.664Z,98018.92
2023-04-15T17:31:46.537Z,98032.45
2023-04-15T17:33:54.205Z,98035.02
2023-04-15T17:35:35.764Z,98037.33
2023-04-15T17:37:18.842Z,98040.71
2023-04-15T17:38:52.727Z,98044.77
2023-04-15T17:40:37.620Z,98048.23
2023-04-15T17:42:09.124Z,98046.52
2023-04-15T17:43:33.124Z,98052.05
2023-04-15T17:44:55.131Z,98054.79
2023-04-15T17:46:19.286Z,98061.45
2023-04-15T17:48:08.625Z,98060.06
2023-04-15T17:49:54.578Z,98066.35
2023-04-15T17:51:20.416Z,98077.48
2023-04-15T17:52:42.662Z,98077.61
2023-04-15T17:54:18.384Z,98078.36
2023-04-15T17:55:56.723Z,98085.54
2023-04-15T17:57:30.385Z,98091.42
2023-04-15T17:59:15.442Z,98092.13
2023-04-15T18:00:37.885Z,98096.41
2023-04-15T18:01:59.845Z,98099.77
2023-04-15T18:03:41.090Z,98103.29
2023-04-15T18:05:26.669Z,98103.37
2023-04-15T18:06:49.190Z,98108.13
2023-04-15T18:08:34.389Z,98109.13
2023-04-15T18:10:08.209Z,98110.44
2023-04-15T18:11:57.108Z,98115.32
2023-04-15T18:13:43.694Z,98113.52
2023-04-15T18:15:20.343Z,98118.42
2023-04-15T18:17:06.008Z,98113.79
2023-04-15T18:18:52.261Z,98108.20
2023-04-15T18:20:38.079Z,98111.02
2023-04-15T18:22:23.953Z,98097.92
2023-04-15T18:23:57.645Z,98114.05
2023-04-15T18:25:51.609Z,98116.02
2023-04-15T18:27:27.688Z,98117.60
2023-04-15T18:29:13.128Z,98121.36
2023-04-15T18:30:56.988Z,98129.14
2023-04-15T18:32:38.400Z,98133.19
2023-04-15T18:34:12.361Z,98132.73
2023-04-15T18:35:54.872Z,98117.88
2023-04-15T18:37:33.646Z,98133.35
2023-04-15T18:39:19.838Z,98137.48
2023-04-15T18:41:05.861Z,98135.43
2023-04-15T18:42:40.616Z,98127.21
2023-04-15T18:44:14.278Z,98136.88
2023-04-15T18:45:57.518Z,98136.16
2023-04-15T18:47:50.924Z,98138.29
2023-04-15T18:49:15.396Z,98137.42
2023-04-15T18:50:39.816Z,98137.78
2023-04-15T18:52:20.403Z,98137.73
2023-04-15T18:53:50.261Z,98136.42
2023-04-15T18:55:24.284Z,98135.13
2023-04-15T18:57:09.685Z,98137.89
2023-04-15T18:59:18.220Z,98127.20
2023-04-15T19:00:42.038Z,98143.09
2023-04-15T19:02:35.778Z,98136.77
2023-04-15T19:04:12.617Z,98121.33
2023-04-15T19:05:46.466Z,98143.29
2023-04-15T19:07:27.390Z,98151.09
2023-04-15T19:09:03.438Z,98154.35
2023-04-15T19:10:25.663Z,98162.31
2023-04-15T19:12:12.155Z,98177.86
2023-04-15T19:13:57.753Z,98183.48
2023-04-15T19:15:52.834Z,98187.14
2023-04-15T19:17:28.999Z,98191.48